Time;durP1;ratioP1;P1;durP2;ratioP2;P2;SDS_P1;SDS_P2;PMS_P1;PMS_P2;Temp;Humidity;BMP_temperature;BMP_pressure;BME280_temperature;BME280_humidity;BME280_pressure;Samples;Min_cycle;Max_cycle;Signal;HPM_P1;HPM_P2
2020/12/06 00:03:03;;;;;;;30.07;16.40;;;;;;;9.00;64.38;98497.67;249103;1132;115063;-66
2020/12/06 00:08:07;;;;;;;35.77;17.93;;;;;;;9.01;64.50;98494.09;251102;1131;115134;-66
2020/12/06 00:13:10;;;;;;;28.07;17.80;;;;;;;9.06;64.82;98491.97;251344;1132;116479;-63
2020/12/06 00:18:13;;;;;;;29.10;17.50;;;;;;;9.12;64.52;98496.89;249088;1131;115427;-64
2020/12/06 00:23:20;;;;;;;28.57;17.25;;;;;;;9.11;64.28;98499.66;252272;1132;115102;-66
2020/12/06 00:28:24;;;;;;;28.57;17.50;;;;;;;9.07;64.13;98503.44;250180;1133;114723;-64
2020/12/06 00:33:27;;;;;;;42.93;22.80;;;;;;;8.98;64.68;98502.24;249103;1132;115150;-65
2020/12/06 00:38:31;;;;;;;28.05;17.40;;;;;;;8.89;64.30;98500.17;251204;1132;115386;-63
2020/12/06 00:43:34;;;;;;;28.93;17.90;;;;;;;8.81;64.45;98491.86;252290;1132;115009;-63
2020/12/06 00:48:38;;;;;;;27.70;17.75;;;;;;;8.73;64.54;98501.16;250901;1132;115609;-64
2020/12/06 00:53:42;;;;;;;29.33;18.90;;;;;;;8.65;64.41;98491.97;250654;1132;114720;-65
2020/12/06 00:58:48;;;;;;;26.17;17.20;;;;;;;8.57;64.21;98500.41;251715;1132;114359;-62
2020/12/06 01:03:52;;;;;;;27.42;16.50;;;;;;;8.51;64.54;98501.63;249553;1131;115005;-66
2020/12/06 01:08:57;;;;;;;25.60;16.35;;;;;;;8.50;64.82;98501.75;252116;1132;114824;-62
2020/12/06 01:14:00;;;;;;;24.33;15.03;;;;;;;8.51;64.57;98508.74;252182;1133;114835;-62
2020/12/06 01:19:03;;;;;;;23.47;15.17;;;;;;;8.54;64.86;98516.52;251627;1132;114923;-62
2020/12/06 01:24:06;;;;;;;23.80;15.17;;;;;;;8.52;64.61;98513.09;250315;1132;114963;-65
2020/12/06 01:29:09;;;;;;;25.50;15.37;;;;;;;8.45;64.87;98511.77;250307;1132;115132;-62
2020/12/06 01:34:13;;;;;;;27.20;15.30;;;;;;;8.31;64.46;98504.63;251815;1132;114567;-62
2020/12/06 01:39:16;;;;;;;23.90;15.60;;;;;;;8.14;64.22;98518.06;251389;1134;115007;-64
2020/12/06 01:44:19;;;;;;;27.57;16.97;;;;;;;7.96;63.99;98518.23;251561;1131;114650;-65
2020/12/06 01:49:35;;;;;;;25.27;15.32;;;;;;;7.79;64.04;98518.38;252040;1132;114689;-67
2020/12/06 01:54:38;;;;;;;24.02;15.85;;;;;;;7.65;64.69;98521.84;251736;1132;114734;-66
2020/12/06 01:59:43;;;;;;;22.17;14.50;;;;;;;7.54;64.50;98524.24;251975;1132;114311;-65
2020/12/06 02:04:46;;;;;;;;;;;;;;;7.53;64.65;98519.89;248999;1131;115428;-63
2020/12/06 02:09:49;;;;;;;21.83;14.80;;;;;;;7.49;64.94;98524.52;251489;1132;103429;-62
2020/12/06 02:14:53;;;;;;;24.97;14.93;;;;;;;7.50;65.08;98522.72;249409;1132;115068;-65
2020/12/06 02:19:56;;;;;;;26.17;14.97;;;;;;;7.45;64.39;98512.41;248796;1132;115558;-64
2020/12/06 02:25:00;;;;;;;24.70;15.87;;;;;;;7.35;64.71;98527.11;252074;1132;115266;-64
2020/12/06 02:30:04;;;;;;;25.30;16.50;;;;;;;7.25;65.13;98510.90;249293;1132;114753;-66
2020/12/06 02:35:08;;;;;;;26.93;15.55;;;;;;;7.17;64.58;98509.61;251960;1132;115496;-66
2020/12/06 02:40:11;;;;;;;22.53;14.47;;;;;;;7.06;64.32;98512.88;249989;1131;115117;-65
2020/12/06 02:45:14;;;;;;;24.43;14.53;;;;;;;7.04;64.73;98526.20;252212;1132;114787;-62
2020/12/06 02:50:17;;;;;;;24.53;15.10;;;;;;;7.00;64.87;98522.02;249086;1132;114777;-63
2020/12/06 02:55:23;;;;;;;22.20;13.03;;;;;;;6.98;65.36;98521.25;251566;1132;114699;-62
2020/12/06 03:00:26;;;;;;;24.63;12.97;;;;;;;7.02;65.03;98524.57;251925;1132;114485;-64
2020/12/06 03:05:30;;;;;;;22.35;14.45;;;;;;;7.06;66.27;98520.80;251984;1132;114949;-64
2020/12/06 03:10:33;;;;;;;22.58;14.33;;;;;;;7.19;65.66;98523.63;252109;1132;115481;-63
2020/12/06 03:15:37;;;;;;;21.15;14.28;;;;;;;7.34;65.93;98536.85;251972;1132;114877;-63
2020/12/06 03:20:40;;;;;;;22.13;13.83;;;;;;;7.44;66.31;98525.71;251105;1132;114741;-65
2020/12/06 03:25:44;;;;;;;22.87;13.90;;;;;;;7.53;66.73;98526.04;252234;1134;114973;-66
2020/12/06 03:30:46;;;;;;;19.63;13.87;;;;;;;7.59;66.27;98527.48;252001;1132;114745;-63
2020/12/06 03:35:51;;;;;;;19.75;13.08;;;;;;;7.63;66.54;98517.57;250579;1131;114738;-64
2020/12/06 03:40:53;;;;;;;18.17;12.80;;;;;;;7.70;66.73;98516.27;249964;1132;114522;-68
2020/12/06 03:45:57;;;;;;;20.35;12.82;;;;;;;7.77;66.21;98515.80;250872;1132;114918;-65
2020/12/06 03:50:59;;;;;;;20.23;13.07;;;;;;;7.81;66.47;98514.70;252198;1132;114925;-64
2020/12/06 03:56:03;;;;;;;19.10;13.20;;;;;;;7.86;66.69;98524.17;250035;1131;115224;-64
2020/12/06 04:01:07;;;;;;;20.90;13.73;;;;;;;7.86;66.34;98529.47;251576;1132;115179;-66
2020/12/06 04:06:10;;;;;;;22.63;14.63;;;;;;;7.85;66.63;98525.97;250076;1132;115696;-64
2020/12/06 04:11:13;;;;;;;19.63;13.30;;;;;;;7.85;66.76;98528.63;251080;1132;115113;-62
2020/12/06 04:16:16;;;;;;;19.20;13.17;;;;;;;7.85;66.28;98533.92;251931;1131;115716;-65
2020/12/06 04:21:19;;;;;;;18.87;13.00;;;;;;;7.86;66.66;98529.47;250742;1131;115317;-63
2020/12/06 04:26:22;;;;;;;21.80;13.00;;;;;;;7.85;66.48;98525.13;250389;1131;114923;-63
2020/12/06 04:31:25;;;;;;;17.85;11.35;;;;;;;7.87;66.82;98531.17;249971;1132;115451;-65
2020/12/06 04:36:28;;;;;;;19.47;11.40;;;;;;;7.90;66.22;98531.84;249726;1132;115338;-63
2020/12/06 04:41:32;;;;;;;18.50;11.27;;;;;;;7.92;66.18;98524.66;252113;1132;115194;-62
2020/12/06 04:46:38;;;;;;;18.20;11.87;;;;;;;7.94;66.65;98527.20;251220;1132;114669;-63
2020/12/06 04:51:43;;;;;;;17.95;11.85;;;;;;;7.94;67.00;98532.50;252164;1132;114817;-65
2020/12/06 04:56:50;;;;;;;17.10;11.65;;;;;;;7.96;66.71;98531.48;248929;1131;116027;-66
2020/12/06 05:01:56;;;;;;;15.73;11.20;;;;;;;7.95;66.43;98536.88;251130;1131;114467;-66
2020/12/06 05:07:02;;;;;;;16.73;11.10;;;;;;;7.95;66.21;98542.18;251712;1131;114823;-64
2020/12/06 05:12:06;;;;;;;16.80;11.60;;;;;;;7.93;66.68;98541.41;251875;1132;114803;-65
2020/12/06 05:17:10;;;;;;;15.98;10.85;;;;;;;7.90;67.02;98538.94;250580;1132;114643;-65
2020/12/06 05:22:13;;;;;;;15.87;10.50;;;;;;;7.85;66.28;98539.22;251568;1132;114705;-64
2020/12/06 05:27:17;;;;;;;16.40;10.45;;;;;;;7.88;66.56;98535.52;251961;1132;115008;-64
2020/12/06 05:32:20;;;;;;;16.60;10.97;;;;;;;7.96;66.67;98541.23;252027;1132;114504;-65
2020/12/06 05:37:23;;;;;;;15.27;10.33;;;;;;;8.05;67.42;98538.04;248948;1132;115006;-64
2020/12/06 05:42:28;;;;;;;15.98;11.22;;;;;;;8.15;67.34;98541.84;252140;1132;115003;-64
2020/12/06 05:47:36;;;;;;;19.90;10.85;;;;;;;8.21;67.43;98536.14;250887;1132;114785;-63
2020/12/06 05:52:38;;;;;;;19.03;11.10;;;;;;;8.23;67.41;98557.28;249598;1131;114749;-63
2020/12/06 05:57:44;;;;;;;18.63;11.93;;;;;;;8.19;67.17;98553.96;248980;1131;114810;-64
2020/12/06 06:02:52;;;;;;;14.87;10.33;;;;;;;8.18;67.26;98551.38;251525;1132;114847;-64
2020/12/06 06:08:01;;;;;;;16.63;11.00;;;;;;;8.13;66.47;98548.17;249769;1132;114909;-65
2020/12/06 06:13:08;;;;;;;15.43;9.93;;;;;;;8.14;67.17;98555.17;251608;1132;115291;-64
2020/12/06 06:18:12;;;;;;;14.50;10.20;;;;;;;8.20;66.68;98565.41;250945;1132;114751;-63
2020/12/06 06:23:16;;;;;;;15.67;10.20;;;;;;;8.24;66.95;98559.82;250184;1132;115261;-63
2020/12/06 06:28:19;;;;;;;15.03;10.20;;;;;;;8.28;66.59;98553.38;250492;1132;115296;-63
2020/12/06 06:33:24;;;;;;;16.85;10.40;;;;;;;8.33;67.13;98573.48;249656;1130;114812;-66
2020/12/06 06:38:27;;;;;;;14.80;9.98;;;;;;;8.33;66.63;98558.42;251972;1132;116758;-67
2020/12/06 06:43:33;;;;;;;14.80;10.03;;;;;;;8.35;67.15;98568.92;252100;1132;114723;-64
2020/12/06 06:48:36;;;;;;;12.67;9.40;;;;;;;8.37;66.65;98572.34;251235;1132;114845;-66
2020/12/06 06:53:39;;;;;;;14.17;10.03;;;;;;;8.35;67.10;98575.08;251826;1132;116401;-66
2020/12/06 06:58:47;;;;;;;16.82;10.60;;;;;;;8.37;66.55;98586.45;250605;1131;114793;-66
2020/12/06 07:03:54;;;;;;;15.97;9.93;;;;;;;8.37;66.59;98590.91;252109;1132;114723;-66
2020/12/06 07:08:57;;;;;;;15.53;9.10;;;;;;;8.43;67.63;98593.23;250046;1131;115127;-64
2020/12/06 07:14:02;;;;;;;14.07;9.73;;;;;;;8.56;67.19;98586.23;250543;1131;114703;-64
2020/12/06 07:19:06;;;;;;;14.70;9.70;;;;;;;8.69;67.37;98589.81;252268;1131;114332;-66
2020/12/06 07:24:09;;;;;;;14.73;10.60;;;;;;;8.77;66.87;98602.62;251836;1132;114666;-64
2020/12/06 07:29:14;;;;;;;15.95;10.08;;;;;;;8.84;67.16;98601.30;252090;1132;114886;-67
2020/12/06 07:34:20;;;;;;;16.12;11.00;;;;;;;8.90;67.40;98597.39;251071;1132;115414;-64
2020/12/06 07:39:24;;;;;;;15.20;10.50;;;;;;;8.99;67.30;98587.06;252016;1132;115337;-65
2020/12/06 07:44:26;;;;;;;13.47;9.83;;;;;;;9.04;66.86;98585.94;249678;1132;115532;-64
2020/12/06 07:49:55;;;;;;;13.18;8.75;;;;;;;9.10;66.98;98594.34;251710;1132;115599;-65
2020/12/06 07:55:09;;;;;;;13.07;9.40;;;;;;;9.22;67.22;98598.03;251975;1132;115237;-64
2020/12/06 08:00:38;;;;;;;13.95;9.68;;;;;;;9.40;67.02;98591.53;252430;1132;114779;-65
2020/12/06 08:05:48;;;;;;;13.97;9.73;;;;;;;9.55;67.28;98597.68;250290;1132;114989;-63
2020/12/06 08:11:03;;;;;;;13.17;9.90;;;;;;;9.64;67.17;98599.71;249978;1131;114675;-65
2020/12/06 08:16:14;;;;;;;18.40;10.03;;;;;;;9.72;66.81;98596.58;249866;1132;116090;-65
2020/12/06 08:21:21;;;;;;;14.10;8.40;;;;;;;9.78;66.69;98589.98;250090;1132;115593;-65
2020/12/06 08:26:42;;;;;;;15.10;9.40;;;;;;;9.88;67.07;98585.77;249793;1132;117304;-65
2020/12/06 08:32:03;;;;;;;13.30;9.27;;;;;;;9.94;66.84;98596.84;250142;1132;114524;-66
2020/12/06 08:37:35;;;;;;;14.13;9.20;;;;;;;10.05;66.60;98597.94;249880;1131;115591;-66
2020/12/06 08:42:55;;;;;;;;;;;;;;;10.15;66.78;98604.34;250106;1132;115344;-65
2020/12/06 08:48:02;;;;;;;13.95;8.28;;;;;;;10.27;66.34;98608.02;249998;1131;104362;-66
2020/12/06 08:53:06;;;;;;;11.23;7.93;;;;;;;10.38;66.56;98598.34;250171;1131;115448;-67
2020/12/06 08:58:33;;;;;;;11.43;8.55;;;;;;;10.50;66.76;98583.37;249922;1132;115519;-67
2020/12/06 09:04:09;;;;;;;11.77;8.80;;;;;;;10.60;66.35;98576.45;250336;1132;114769;-67
2020/12/06 09:09:16;;;;;;;11.57;8.17;;;;;;;10.73;66.63;98578.23;250489;1132;115332;-66
2020/12/06 09:14:23;;;;;;;11.23;8.30;;;;;;;10.83;65.94;98573.97;249911;1131;115120;-68
2020/12/06 09:19:31;;;;;;;12.23;7.57;;;;;;;10.96;66.62;98576.63;249889;1132;115409;-68
2020/12/06 09:24:43;;;;;;;12.30;8.30;;;;;;;11.05;65.69;98567.98;250185;1132;115723;-68
2020/12/06 09:29:53;;;;;;;14.87;7.80;;;;;;;11.19;66.24;98561.67;250219;1132;115379;-68
2020/12/06 09:34:59;;;;;;;10.60;7.17;;;;;;;11.30;65.60;98553.73;250209;1131;115022;-67
2020/12/06 09:40:04;;;;;;;10.78;7.58;;;;;;;11.43;65.50;98551.89;250955;1132;114771;-66
2020/12/06 09:45:12;;;;;;;10.43;7.37;;;;;;;11.62;65.52;98538.07;251053;1132;115401;-67
2020/12/06 09:50:41;;;;;;;11.07;7.20;;;;;;;11.79;65.63;98526.14;250735;1130;115494;-65
2020/12/06 09:56:14;;;;;;;12.13;8.30;;;;;;;11.95;64.90;98515.18;250296;1132;115936;-66
2020/12/06 10:01:16;;;;;;;10.82;7.67;;;;;;;12.16;65.15;98502.89;251629;1136;115566;-63
2020/12/06 10:06:23;;;;;;;12.03;7.60;;;;;;;12.35;64.74;98491.63;251799;1135;115142;-65
2020/12/06 10:11:26;;;;;;;9.83;7.23;;;;;;;12.46;64.52;98478.28;251564;1135;115322;-67
2020/12/06 10:16:29;;;;;;;10.07;7.47;;;;;;;12.65;65.08;98471.50;251860;1135;114854;-66
2020/12/06 10:21:31;;;;;;;10.67;7.17;;;;;;;12.84;64.34;98463.72;251782;1133;115015;-66
2020/12/06 10:26:34;;;;;;;10.13;7.20;;;;;;;13.02;64.25;98464.89;251699;1140;115011;-68
2020/12/06 10:31:37;;;;;;;14.03;7.97;;;;;;;13.24;64.27;98455.98;251601;1135;115085;-69
2020/12/06 10:36:39;;;;;;;8.73;6.00;;;;;;;13.43;63.61;98443.80;251591;1134;115135;-68
2020/12/06 10:41:42;;;;;;;7.47;5.07;;;;;;;13.54;63.61;98440.22;251709;1136;115126;-67
2020/12/06 10:46:46;;;;;;;7.57;5.70;;;;;;;13.57;62.55;98440.80;251717;1141;115571;-68
2020/12/06 10:51:48;;;;;;;7.70;5.50;;;;;;;13.60;62.55;98437.03;251810;1142;114362;-66
2020/12/06 10:56:51;;;;;;;8.30;5.13;;;;;;;13.59;61.60;98424.66;251811;1134;114943;-69
2020/12/06 11:01:53;;;;;;;7.97;5.20;;;;;;;13.56;61.48;98430.25;251705;1135;114589;-68
2020/12/06 11:06:59;;;;;;;7.50;5.10;;;;;;;13.56;61.48;98427.58;251720;1136;114851;-65
2020/12/06 11:12:01;;;;;;;6.80;5.20;;;;;;;13.56;61.58;98425.75;251755;1135;114912;-68
2020/12/06 11:17:04;;;;;;;6.78;5.22;;;;;;;13.57;60.89;98411.40;251767;1135;114635;-67
2020/12/06 11:22:06;;;;;;;10.07;5.37;;;;;;;13.59;61.18;98416.63;251692;1134;115189;-65
2020/12/06 11:27:09;;;;;;;8.27;5.53;;;;;;;13.61;60.39;98428.03;251758;1134;115274;-68
2020/12/06 11:32:12;;;;;;;7.67;5.37;;;;;;;13.62;60.71;98422.56;251812;1134;115702;-67
2020/12/06 11:37:14;;;;;;;8.33;4.97;;;;;;;13.65;60.47;98410.74;251702;1136;115389;-68
2020/12/06 11:42:16;;;;;;;7.90;5.05;;;;;;;13.69;60.16;98405.02;251832;1140;115268;-65
2020/12/06 11:47:23;;;;;;;7.10;4.90;;;;;;;13.75;59.67;98408.14;251925;1135;115572;-67
2020/12/06 11:52:28;;;;;;;7.50;4.90;;;;;;;13.77;59.67;98400.84;251125;1135;115085;-67
2020/12/06 11:57:31;;;;;;;6.13;4.83;;;;;;;13.83;59.43;98411.02;251694;1138;114744;-65
2020/12/06 12:02:34;;;;;;;8.30;5.40;;;;;;;13.87;59.22;98405.27;251795;1138;114841;-65
2020/12/06 12:07:38;;;;;;;10.35;4.72;;;;;;;13.89;58.66;98406.00;251671;1134;114754;-66
2020/12/06 12:12:42;;;;;;;8.17;4.57;;;;;;;13.92;58.47;98408.38;251811;1133;115056;-67
2020/12/06 12:17:44;;;;;;;6.30;4.03;;;;;;;13.93;58.27;98395.88;251747;1134;115516;-67
2020/12/06 12:22:47;;;;;;;6.23;5.10;;;;;;;13.88;57.78;98398.94;251841;1141;115044;-66
2020/12/06 12:27:50;;;;;;;6.33;4.20;;;;;;;13.95;57.95;98393.91;251906;1136;115114;-67
2020/12/06 12:32:52;;;;;;;6.62;4.25;;;;;;;14.08;57.53;98383.84;251609;1134;114560;-66
2020/12/06 12:37:56;;;;;;;9.20;5.47;;;;;;;14.25;57.53;98400.26;251672;1136;115057;-69
2020/12/06 12:43:01;;;;;;;5.10;3.95;;;;;;;14.35;57.18;98388.61;251853;1134;115590;-63
2020/12/06 12:48:03;;;;;;;7.67;3.98;;;;;;;14.44;57.19;98392.31;251596;1135;115053;-63
2020/12/06 12:53:06;;;;;;;9.07;5.27;;;;;;;14.40;56.88;98377.48;251820;1134;115096;-68
2020/12/06 12:58:08;;;;;;;6.80;4.80;;;;;;;14.33;56.56;98371.82;251742;1134;114908;-68
2020/12/06 13:03:10;;;;;;;10.47;5.13;;;;;;;14.25;56.28;98370.81;251586;1135;115736;-66
2020/12/06 13:08:13;;;;;;;10.07;4.73;;;;;;;14.17;56.39;98360.80;251869;1133;114706;-65
2020/12/06 13:13:16;;;;;;;9.37;4.77;;;;;;;14.09;55.90;98352.57;251758;1133;114633;-66
2020/12/06 13:18:19;;;;;;;8.97;4.80;;;;;;;14.00;56.15;98354.23;251723;1133;115078;-65
2020/12/06 13:23:24;;;;;;;7.12;4.30;;;;;;;13.90;56.16;98354.19;251760;1133;115712;-67
2020/12/06 13:28:26;;;;;;;7.70;4.50;;;;;;;13.82;56.05;98353.98;251677;1134;115259;-67
2020/12/06 13:33:29;;;;;;;5.57;4.13;;;;;;;13.79;56.22;98359.63;251708;1135;115078;-66
2020/12/06 13:38:31;;;;;;;5.67;4.10;;;;;;;13.75;55.93;98365.35;251283;1134;115949;-65
2020/12/06 13:43:35;;;;;;;9.63;4.30;;;;;;;13.64;56.02;98375.14;251710;1134;114913;-67
2020/12/06 13:48:37;;;;;;;9.13;4.47;;;;;;;13.54;56.14;98371.55;252012;1134;114974;-65
2020/12/06 13:53:40;;;;;;;6.80;4.30;;;;;;;13.42;55.95;98370.78;251733;1144;114873;-66
2020/12/06 13:58:42;;;;;;;8.33;4.23;;;;;;;13.32;55.51;98383.22;251728;1135;114963;-66
2020/12/06 14:03:45;;;;;;;6.70;4.67;;;;;;;13.23;55.99;98381.28;251595;1135;115278;-66
2020/12/06 14:08:48;;;;;;;7.00;4.90;;;;;;;13.14;55.52;98382.03;251823;1135;114671;-67
2020/12/06 14:13:50;;;;;;;9.20;5.20;;;;;;;13.06;55.99;98381.84;251763;1135;114889;-65
2020/12/06 14:18:57;;;;;;;11.03;6.27;;;;;;;12.96;56.11;98379.91;251709;1135;114740;-65
2020/12/06 14:24:00;;;;;;;13.55;7.28;;;;;;;12.88;56.20;98358.34;251767;1133;115528;-68
2020/12/06 14:29:02;;;;;;;17.43;7.27;;;;;;;12.83;56.24;98351.67;251821;1134;115261;-66
2020/12/06 14:34:05;;;;;;;15.73;6.70;;;;;;;12.76;56.60;98373.53;251822;1135;114885;-65
2020/12/06 14:39:08;;;;;;;9.35;6.05;;;;;;;12.68;56.46;98367.98;251930;1134;115375;-66
2020/12/06 14:44:12;;;;;;;12.50;7.90;;;;;;;12.54;56.56;98366.44;251776;1133;115096;-66
2020/12/06 14:49:15;;;;;;;11.30;7.90;;;;;;;12.31;56.45;98375.44;250937;1134;115143;-65
2020/12/06 14:54:19;;;;;;;13.57;8.20;;;;;;;12.07;56.31;98383.57;251950;1135;115273;-65
2020/12/06 14:59:22;;;;;;;12.47;7.42;;;;;;;11.86;56.54;98374.59;251985;1134;115307;-64
2020/12/06 15:04:24;;;;;;;11.90;7.37;;;;;;;11.63;56.86;98389.66;251876;1134;115401;-64
2020/12/06 15:09:26;;;;;;;11.70;8.27;;;;;;;11.42;56.79;98394.81;251763;1134;116256;-65
2020/12/06 15:14:28;;;;;;;10.40;7.73;;;;;;;11.25;57.37;98391.61;251929;1136;115755;-65
2020/12/06 15:19:32;;;;;;;12.90;8.63;;;;;;;11.06;56.92;98393.94;251683;1136;114995;-65
2020/12/06 15:24:35;;;;;;;13.43;9.43;;;;;;;10.86;57.43;98396.25;251783;1135;115013;-64
2020/12/06 15:29:38;;;;;;;20.90;11.40;;;;;;;10.63;56.75;98389.09;251707;1135;115087;-64
2020/12/06 15:34:40;;;;;;;18.73;11.17;;;;;;;10.41;57.23;98392.47;252015;1134;115176;-64
2020/12/06 15:39:43;;;;;;;18.57;12.00;;;;;;;10.20;57.60;98400.14;251917;1140;115450;-64
2020/12/06 15:44:47;;;;;;;20.83;12.07;;;;;;;10.00;57.97;98390.06;250837;1134;115200;-65
2020/12/06 15:49:50;;;;;;;18.83;11.97;;;;;;;9.78;58.12;98385.37;249049;1135;115304;-63
2020/12/06 15:54:52;;;;;;;17.40;11.30;;;;;;;9.52;58.00;98381.88;249701;1135;115009;-67
2020/12/06 15:59:57;;;;;;;18.03;12.57;;;;;;;9.28;58.27;98377.27;251586;1134;115123;-66
2020/12/06 16:05:04;;;;;;;17.13;11.37;;;;;;;9.16;58.61;98397.52;251356;1135;115010;-66
2020/12/06 16:10:06;;;;;;;19.70;12.70;;;;;;;9.02;58.49;98394.08;251851;1135;115488;-66
2020/12/06 16:15:08;;;;;;;21.57;13.53;;;;;;;8.85;58.69;98397.84;251950;1135;114961;-65
2020/12/06 16:20:11;;;;;;;19.90;12.13;;;;;;;8.71;58.99;98402.23;251751;1135;115640;-68
2020/12/06 16:25:13;;;;;;;17.93;12.13;;;;;;;8.50;58.69;98391.22;251748;1135;115003;-67
2020/12/06 16:30:16;;;;;;;22.83;13.10;;;;;;;8.34;59.55;98392.25;251840;1134;114927;-67
2020/12/06 16:35:19;;;;;;;21.77;13.60;;;;;;;8.15;59.56;98395.20;251829;1135;115172;-65
2020/12/06 16:40:21;;;;;;;21.50;13.07;;;;;;;8.07;59.98;98400.98;251715;1142;115029;-65
2020/12/06 16:45:24;;;;;;;21.12;13.03;;;;;;;8.02;60.52;98393.33;251897;1141;116106;-66
2020/12/06 16:50:27;;;;;;;20.93;13.17;;;;;;;8.00;59.60;98399.66;251861;1134;115635;-67
2020/12/06 16:55:29;;;;;;;25.83;15.50;;;;;;;7.91;60.73;98382.52;251840;1135;115140;-66
2020/12/06 17:00:32;;;;;;;23.77;13.23;;;;;;;7.83;59.81;98379.51;251857;1135;115097;-65
2020/12/06 17:05:35;;;;;;;20.03;12.73;;;;;;;7.70;59.77;98374.10;251849;1135;115409;-65
2020/12/06 17:10:37;;;;;;;20.20;13.50;;;;;;;7.63;60.61;98371.92;251860;1134;115694;-66
2020/12/06 17:15:39;;;;;;;19.00;12.03;;;;;;;7.52;60.01;98367.28;251711;1136;115084;-66
2020/12/06 17:20:42;;;;;;;19.70;12.80;;;;;;;7.41;60.31;98385.63;251762;1142;114948;-65
2020/12/06 17:25:46;;;;;;;18.57;12.70;;;;;;;7.33;60.95;98375.47;251762;1134;115253;-63
2020/12/06 17:30:48;;;;;;;22.73;13.97;;;;;;;7.26;61.27;98376.78;251452;1134;115376;-65
2020/12/06 17:35:51;;;;;;;23.40;13.20;;;;;;;7.21;61.07;98363.83;249114;1135;114703;-64
2020/12/06 17:40:53;;;;;;;21.90;13.53;;;;;;;7.15;61.16;98365.98;251832;1135;114660;-65
2020/12/06 17:45:56;;;;;;;18.92;13.05;;;;;;;7.13;61.46;98376.64;251674;1134;115105;-65
2020/12/06 17:50:58;;;;;;;23.50;13.33;;;;;;;7.08;60.91;98373.42;251799;1135;115282;-67
2020/12/06 17:56:01;;;;;;;23.90;14.13;;;;;;;7.02;60.94;98390.50;251773;1134;114959;-64
2020/12/06 18:01:04;;;;;;;23.55;14.03;;;;;;;6.99;61.49;98389.83;251806;1134;115271;-64
2020/12/06 18:06:06;;;;;;;22.63;13.73;;;;;;;6.98;61.32;98382.84;251952;1135;114735;-64
2020/12/06 18:11:12;;;;;;;21.53;13.67;;;;;;;6.92;61.52;98375.25;251859;1135;114740;-66
2020/12/06 18:16:17;;;;;;;24.40;13.70;;;;;;;6.86;62.16;98381.73;251897;1135;114736;-63
2020/12/06 18:21:21;;;;;;;21.82;12.95;;;;;;;6.80;62.26;98387.41;251768;1136;114814;-64
2020/12/06 18:26:37;;;;;;;24.02;14.00;;;;;;;6.76;61.92;98385.84;251933;1133;115425;-66
2020/12/06 18:31:40;;;;;;;19.53;12.87;;;;;;;6.69;61.59;98381.85;251829;1134;115373;-65
2020/12/06 18:36:42;;;;;;;20.15;13.28;;;;;;;6.58;62.33;98375.38;251762;1135;114694;-65
2020/12/06 18:41:46;;;;;;;22.00;13.23;;;;;;;6.54;61.80;98381.79;251709;1134;114880;-66
2020/12/06 18:46:51;;;;;;;19.98;12.70;;;;;;;6.52;62.45;98375.75;251757;1135;115085;-64
2020/12/06 18:51:54;;;;;;;19.83;12.87;;;;;;;6.54;62.25;98373.02;251695;1134;118138;-65
2020/12/06 18:56:59;;;;;;;21.60;12.30;;;;;;;6.52;62.11;98370.47;251840;1136;115184;-65
2020/12/06 19:02:02;;;;;;;19.17;12.63;;;;;;;6.54;62.34;98365.92;251813;1135;115072;-65
2020/12/06 19:07:05;;;;;;;17.73;11.50;;;;;;;6.41;61.86;98375.48;251841;1142;114872;-64
2020/12/06 19:12:07;;;;;;;22.13;12.50;;;;;;;6.36;62.34;98380.19;251658;1134;114811;-64
2020/12/06 19:17:10;;;;;;;20.40;12.43;;;;;;;6.31;62.87;98398.06;251600;1137;116127;-64
2020/12/06 19:22:16;;;;;;;18.93;11.90;;;;;;;6.27;62.20;98404.47;251891;1134;114611;-64
2020/12/06 19:27:18;;;;;;;19.50;12.33;;;;;;;6.21;61.80;98383.66;251756;1134;116160;-65
2020/12/06 19:32:21;;;;;;;24.53;13.80;;;;;;;6.14;63.03;98385.78;251717;1135;115486;-65
2020/12/06 19:37:23;;;;;;;18.47;12.30;;;;;;;6.12;63.26;98372.67;251740;1142;114770;-65
2020/12/06 19:42:26;;;;;;;19.57;11.70;;;;;;;6.10;62.41;98378.97;251854;1135;115190;-64
2020/12/06 19:47:29;;;;;;;18.80;12.53;;;;;;;6.12;63.04;98403.52;251885;1135;114976;-65
2020/12/06 19:52:33;;;;;;;19.30;11.95;;;;;;;6.06;62.82;98399.41;251786;1135;114585;-66
2020/12/06 19:57:36;;;;;;;18.23;11.73;;;;;;;6.03;62.68;98409.30;251929;1133;115066;-65
2020/12/06 20:02:40;;;;;;;21.23;12.55;;;;;;;5.98;63.23;98404.27;251879;1135;114688;-67
2020/12/06 20:07:43;;;;;;;16.95;11.35;;;;;;;5.92;63.64;98408.08;252008;1135;114426;-65
2020/12/06 20:12:46;;;;;;;18.77;12.17;;;;;;;5.87;62.35;98402.14;251723;1136;117288;-65
2020/12/06 20:17:50;;;;;;;19.17;12.37;;;;;;;5.79;63.34;98393.78;252075;1134;114988;-64
2020/12/06 20:22:53;;;;;;;19.37;12.13;;;;;;;5.74;63.34;98406.39;251559;1135;114704;-65
2020/12/06 20:27:55;;;;;;;17.97;12.00;;;;;;;5.71;62.76;98398.63;249624;1135;114685;-66
2020/12/06 20:32:58;;;;;;;18.17;11.83;;;;;;;5.63;63.61;98412.20;251955;1135;115238;-64
2020/12/06 20:38:01;;;;;;;18.15;12.25;;;;;;;5.58;62.71;98405.48;252031;1136;115115;-66
2020/12/06 20:43:03;;;;;;;18.45;11.03;;;;;;;5.59;62.92;98402.75;251935;1135;114929;-64
2020/12/06 20:48:06;;;;;;;18.87;11.63;;;;;;;5.61;62.92;98405.33;251975;1135;115176;-65
2020/12/06 20:53:09;;;;;;;16.37;11.33;;;;;;;5.57;62.96;98406.39;251855;1134;115002;-66
2020/12/06 20:58:11;;;;;;;18.37;11.50;;;;;;;5.54;63.63;98412.70;251906;1134;115189;-63
2020/12/06 21:03:15;;;;;;;17.52;11.20;;;;;;;5.49;63.30;98403.31;251877;1135;114994;-65
2020/12/06 21:08:18;;;;;;;17.95;12.03;;;;;;;5.34;63.66;98399.69;251912;1134;114389;-63
2020/12/06 21:13:20;;;;;;;19.20;12.43;;;;;;;5.25;62.93;98426.52;251775;1135;114705;-64
2020/12/06 21:18:23;;;;;;;18.23;11.37;;;;;;;5.19;64.03;98414.48;251811;1135;114968;-66
2020/12/06 21:23:25;;;;;;;18.83;11.50;;;;;;;5.14;63.48;98424.42;251866;1135;115085;-65
2020/12/06 21:28:27;;;;;;;18.77;11.33;;;;;;;5.10;63.61;98413.18;251831;1134;115021;-64
2020/12/06 21:33:30;;;;;;;18.05;11.05;;;;;;;5.13;63.29;98413.03;251718;1135;115189;-64
2020/12/06 21:38:33;;;;;;;17.93;11.57;;;;;;;5.15;64.28;98405.02;251680;1134;114439;-64
2020/12/06 21:43:38;;;;;;;17.87;11.97;;;;;;;5.15;64.37;98411.14;251708;1135;115559;-64
2020/12/06 21:48:41;;;;;;;19.27;12.18;;;;;;;5.13;63.81;98425.33;251713;1136;114983;-63
2020/12/06 21:53:43;;;;;;;19.73;12.00;;;;;;;5.10;63.70;98407.91;251850;1135;114870;-65
2020/12/06 21:58:46;;;;;;;17.67;10.93;;;;;;;5.03;63.56;98410.89;251682;1135;114964;-64
2020/12/06 22:03:48;;;;;;;14.87;10.23;;;;;;;4.95;64.44;98424.47;251782;1133;114419;-64
2020/12/06 22:08:51;;;;;;;19.47;11.83;;;;;;;4.90;64.21;98415.95;251685;1135;114997;-64
2020/12/06 22:13:53;;;;;;;18.02;11.63;;;;;;;4.86;64.49;98412.61;251970;1135;114603;-65
2020/12/06 22:18:58;;;;;;;16.40;10.77;;;;;;;4.84;64.38;98417.09;251837;1135;114508;-64
2020/12/06 22:24:01;;;;;;;18.02;11.00;;;;;;;4.86;63.76;98407.34;251883;1135;114939;-65
2020/12/06 22:29:04;;;;;;;19.37;11.40;;;;;;;4.92;64.22;98401.73;251767;1135;114857;-66
2020/12/06 22:34:06;;;;;;;19.20;11.57;;;;;;;4.91;64.99;98386.86;251922;1135;114870;-64
2020/12/06 22:39:09;;;;;;;17.95;10.38;;;;;;;4.88;64.97;98378.25;251888;1135;114991;-65
2020/12/06 22:44:11;;;;;;;18.17;11.40;;;;;;;4.86;64.68;98372.22;251956;1135;115018;-64
2020/12/06 22:49:29;;;;;;;15.78;10.35;;;;;;;4.84;64.22;98380.19;251936;1135;114546;-64
2020/12/06 22:54:52;;;;;;;15.90;10.27;;;;;;;4.83;64.77;98377.64;252026;1135;114205;-64
2020/12/06 22:59:54;;;;;;;14.40;9.87;;;;;;;4.83;64.58;98386.39;251869;1135;114915;-65
2020/12/06 23:04:59;;;;;;;17.37;10.53;;;;;;;4.81;64.47;98384.75;251555;1134;114136;-66
2020/12/06 23:10:09;;;;;;;17.40;10.90;;;;;;;4.81;64.81;98390.88;251259;1112;114719;-73